Centertown, Kentucky
Current Conditions -  °F | °C
As of 12:35 PM on Saturday 25 Oct 2014 (Local Time) from K2I0 Reporting Station
Clear Clear  
Wind Chill: 75°   Ceiling: Unl
Heat Index: 75°   Visibility: 10mi
Dew Point: 62°   Wind: 7mph
Humidity: 64%   Direction: 290°WNW
Pressure: 30.01"   Gusts: NA
Location:  37.42°N, 87°W
Report Text: K2I0 251735Z AUTO 29006KT 10SM CLR 24/17 A3001 RMK AO2 T02370165
Loading
Personal Weather Stations






























Interactive Weather Map
Tropical Storm Tracking
New forecast layout! Learn more

10-Day Weather Forecast

Advertisements
Track Severe Weather on mobile